createdAt,value
2022-08-03T00:00:51.438Z,20.30
2022-08-03T00:06:03.922Z,20.20
2022-08-03T00:11:07.079Z,20.20
2022-08-03T00:16:09.261Z,20.10
2022-08-03T00:21:11.609Z,20.10
2022-08-03T00:26:13.334Z,20.10
2022-08-03T00:31:15.206Z,20.00
2022-08-03T00:36:16.910Z,19.90
2022-08-03T00:41:18.653Z,19.90
2022-08-03T00:46:22.312Z,19.80
2022-08-03T00:51:24.327Z,19.80
2022-08-03T00:56:26.820Z,19.70
2022-08-03T01:01:32.179Z,19.70
2022-08-03T01:06:43.427Z,19.70
2022-08-03T01:12:00.991Z,19.60
2022-08-03T01:17:23.240Z,19.60
2022-08-03T01:22:50.081Z,19.50
2022-08-03T01:28:03.269Z,19.50
2022-08-03T01:33:11.660Z,19.50
2022-08-03T01:38:28.325Z,19.60
2022-08-03T01:44:27.043Z,19.60
2022-08-03T01:48:53.715Z,19.50
2022-08-03T01:53:57.308Z,19.50
2022-08-03T01:59:00.938Z,19.50
2022-08-03T02:04:03.886Z,19.40
2022-08-03T02:09:07.748Z,19.40
2022-08-03T02:14:10.529Z,19.30
2022-08-03T02:19:13.253Z,19.30
2022-08-03T02:24:15.097Z,19.30
2022-08-03T02:29:39.247Z,19.30
2022-08-03T02:34:46.169Z,19.30
2022-08-03T02:39:53.234Z,19.20
2022-08-03T02:44:58.779Z,19.10
2022-08-03T02:50:02.168Z,19.10
2022-08-03T02:55:05.494Z,19.10
2022-08-03T03:00:08.552Z,19.10
2022-08-03T03:05:52.107Z,19.10
2022-08-03T03:10:33.837Z,19.00
2022-08-03T03:15:37.716Z,19.00
2022-08-03T03:20:40.905Z,19.00
2022-08-03T03:25:43.526Z,19.00
2022-08-03T03:30:53.104Z,18.90
2022-08-03T03:35:55.696Z,18.90
2022-08-03T03:40:57.605Z,18.90
2022-08-03T03:45:59.922Z,18.90
2022-08-03T03:51:02.349Z,18.80
2022-08-03T03:56:04.376Z,18.90
2022-08-03T04:01:06.874Z,18.90
2022-08-03T04:06:27.421Z,18.90
2022-08-03T04:11:34.663Z,18.90
2022-08-03T04:16:43.587Z,18.90
2022-08-03T04:21:49.266Z,18.90
2022-08-03T04:26:52.851Z,19.00
2022-08-03T04:31:56.287Z,19.00
2022-08-03T04:37:00.442Z,19.10
2022-08-03T04:42:08.515Z,19.20
2022-08-03T04:47:10.769Z,19.30
2022-08-03T04:52:12.675Z,19.30
2022-08-03T04:57:22.036Z,19.40
2022-08-03T05:02:24.425Z,19.50
2022-08-03T05:07:26.343Z,19.50
2022-08-03T05:12:38.086Z,19.60
2022-08-03T05:17:39.935Z,19.70
2022-08-03T05:22:41.713Z,19.80
2022-08-03T05:27:43.465Z,19.80
2022-08-03T05:32:45.223Z,19.90
2022-08-03T05:37:54.813Z,20.00
2022-08-03T05:42:57.772Z,20.10
2022-08-03T05:47:59.972Z,20.20
2022-08-03T05:53:01.823Z,20.20
2022-08-03T05:58:03.896Z,20.40
2022-08-03T06:03:05.992Z,20.50
2022-08-03T06:08:07.913Z,20.60
2022-08-03T06:13:09.614Z,20.70
2022-08-03T06:18:11.433Z,20.80
2022-08-03T06:23:16.115Z,20.90
2022-08-03T06:28:51.210Z,21.10
2022-08-03T06:34:32.153Z,21.30
2022-08-03T06:39:04.045Z,21.50
2022-08-03T06:44:05.885Z,21.60
2022-08-03T06:49:08.254Z,21.70
2022-08-03T06:54:10.085Z,21.90
2022-08-03T07:00:09.554Z,22.10
2022-08-03T07:04:33.604Z,22.20
2022-08-03T07:09:35.389Z,22.30
2022-08-03T07:14:37.179Z,22.50
2022-08-03T07:19:38.979Z,22.60
2022-08-03T07:24:42.001Z,22.70
2022-08-03T07:29:43.932Z,22.80
2022-08-03T07:34:45.747Z,23.00
2022-08-03T07:39:47.558Z,23.20
2022-08-03T07:44:49.676Z,23.40
2022-08-03T07:49:51.815Z,23.60
2022-08-03T07:54:53.659Z,23.70
2022-08-03T08:00:01.240Z,23.90
2022-08-03T08:05:05.924Z,24.00
2022-08-03T08:10:12.954Z,24.10
2022-08-03T08:15:14.874Z,24.30
2022-08-03T08:20:27.702Z,24.40
2022-08-03T08:25:31.824Z,24.50
2022-08-03T08:30:34.404Z,24.70
2022-08-03T08:35:37.229Z,24.80
2022-08-03T08:40:39.035Z,25.00
2022-08-03T08:45:41.853Z,25.20
2022-08-03T08:50:45.013Z,25.40
2022-08-03T08:55:58.619Z,25.50
2022-08-03T09:01:02.044Z,25.70
2022-08-03T09:06:04.344Z,26.10
2022-08-03T09:11:07.528Z,26.40
2022-08-03T09:16:12.040Z,26.40
2022-08-03T09:21:31.681Z,26.40
2022-08-03T09:26:36.723Z,26.60
2022-08-03T09:31:44.698Z,26.90
2022-08-03T09:36:49.460Z,26.90
2022-08-03T09:42:18.362Z,26.90
2022-08-03T09:47:31.881Z,27.00
2022-08-03T09:52:51.839Z,27.10
2022-08-03T09:58:05.882Z,27.30
2022-08-03T10:03:08.023Z,27.30
2022-08-03T10:08:16.152Z,27.40
2022-08-03T10:13:18.867Z,27.90
2022-08-03T10:18:20.640Z,27.90
2022-08-03T10:23:24.851Z,27.90
2022-08-03T10:28:29.140Z,27.70
2022-08-03T10:33:52.044Z,28.10
2022-08-03T10:38:57.035Z,28.20
2022-08-03T10:44:19.246Z,28.10
2022-08-03T10:49:34.008Z,28.10
2022-08-03T10:55:07.724Z,28.30
2022-08-03T11:00:16.987Z,28.30
2022-08-03T11:05:28.316Z,28.50
2022-08-03T11:10:31.894Z,28.60
2022-08-03T11:15:35.852Z,28.60
2022-08-03T11:20:54.909Z,28.50
2022-08-03T11:26:14.474Z,28.70
2022-08-03T11:31:46.936Z,28.90
2022-08-03T11:37:19.185Z,29.10
2022-08-03T11:42:23.989Z,29.40
2022-08-03T11:47:28.347Z,29.30
2022-08-03T11:52:38.601Z,29.70
2022-08-03T11:58:58.106Z,29.50
2022-08-03T12:03:14.462Z,29.30
2022-08-03T12:08:19.165Z,29.40
2022-08-03T12:14:44.867Z,29.60
2022-08-03T12:18:44.039Z,29.60
2022-08-03T12:23:45.954Z,29.70
2022-08-03T12:28:49.996Z,29.70
2022-08-03T12:34:02.994Z,29.90
2022-08-03T12:39:08.127Z,30.10
2022-08-03T12:44:10.277Z,30.20
2022-08-03T12:49:15.620Z,30.30
2022-08-03T12:54:24.494Z,30.40
2022-08-03T12:59:34.626Z,30.80
2022-08-03T13:04:37.286Z,31.10
2022-08-03T13:09:56.341Z,31.20
2022-08-03T13:14:59.750Z,31.50
2022-08-03T13:20:01.626Z,31.70
2022-08-03T13:25:04.402Z,31.70
2022-08-03T13:30:08.566Z,32.10
2022-08-03T13:35:12.252Z,32.30
2022-08-03T13:40:18.552Z,32.50
2022-08-03T13:45:27.522Z,32.80
2022-08-03T13:50:30.212Z,32.80
2022-08-03T13:55:32.029Z,32.60
2022-08-03T14:00:34.426Z,32.80
2022-08-03T14:05:38.359Z,33.30
2022-08-03T14:10:43.397Z,33.60
2022-08-03T14:15:49.711Z,34.40
2022-08-03T14:20:56.184Z,34.30
2022-08-03T14:25:59.072Z,34.40
2022-08-03T14:31:02.057Z,34.70
2022-08-03T14:36:04.538Z,35.30
2022-08-03T14:41:06.310Z,35.20
2022-08-03T14:46:14.023Z,35.50
2022-08-03T14:51:15.841Z,36.20
2022-08-03T14:56:17.846Z,36.90
2022-08-03T15:02:02.476Z,37.20
2022-08-03T15:06:41.376Z,36.80
2022-08-03T15:11:46.203Z,36.20
2022-08-03T15:16:47.960Z,35.10
2022-08-03T15:21:49.665Z,35.30
2022-08-03T15:26:52.974Z,35.20
2022-08-03T15:31:54.703Z,34.90
2022-08-03T15:36:57.180Z,34.20
2022-08-03T15:41:58.957Z,34.00
2022-08-03T15:47:00.643Z,35.00
2022-08-03T15:52:02.334Z,35.30
2022-08-03T15:57:16.975Z,34.90
2022-08-03T16:02:19.678Z,35.70
2022-08-03T16:07:41.355Z,36.10
2022-08-03T16:13:03.071Z,35.70
2022-08-03T16:18:06.580Z,35.20
2022-08-03T16:23:11.304Z,35.50
2022-08-03T16:28:15.019Z,36.00
2022-08-03T16:33:17.906Z,36.00
2022-08-03T16:38:19.816Z,36.50
2022-08-03T16:43:24.957Z,36.60
2022-08-03T16:48:26.812Z,36.10
2022-08-03T16:53:33.144Z,36.90
2022-08-03T16:58:42.386Z,36.50
2022-08-03T17:03:57.430Z,36.10
2022-08-03T17:09:12.963Z,36.00
2022-08-03T17:14:16.965Z,36.30
2022-08-03T17:19:20.466Z,36.60
2022-08-03T17:24:41.098Z,36.20
2022-08-03T17:29:47.893Z,35.10
2022-08-03T17:34:49.694Z,35.00
2022-08-03T17:39:59.146Z,35.20
2022-08-03T17:45:03.572Z,35.50
2022-08-03T17:50:09.781Z,35.50
2022-08-03T17:55:56.673Z,35.30
2022-08-03T18:01:56.966Z,35.00
2022-08-03T18:06:35.933Z,33.90
2022-08-03T18:11:40.586Z,33.30
2022-08-03T18:16:51.256Z,33.00
2022-08-03T18:22:02.844Z,32.80
2022-08-03T18:27:06.757Z,32.40
2022-08-03T18:32:13.555Z,32.10
2022-08-03T18:37:24.975Z,31.80
2022-08-03T18:42:27.313Z,31.60
2022-08-03T18:47:50.641Z,31.30
2022-08-03T18:54:04.129Z,30.90
2022-08-03T18:59:03.242Z,30.60
2022-08-03T19:04:18.665Z,30.30
2022-08-03T19:09:44.618Z,29.90
2022-08-03T19:14:53.492Z,29.70
2022-08-03T19:19:57.788Z,29.50
2022-08-03T19:25:01.507Z,29.20
2022-08-03T19:30:19.941Z,28.90
2022-08-03T19:35:51.395Z,28.80
2022-08-03T19:41:01.143Z,28.60
2022-08-03T19:46:12.100Z,28.40
2022-08-03T19:51:16.077Z,28.30
2022-08-03T19:56:24.145Z,28.10
2022-08-03T20:01:28.157Z,27.90
2022-08-03T20:06:31.183Z,27.70
2022-08-03T20:11:33.920Z,27.60
2022-08-03T20:16:51.093Z,27.30
2022-08-03T20:21:53.784Z,27.20
2022-08-03T20:27:01.440Z,27.10
2022-08-03T20:32:03.330Z,26.90
2022-08-03T20:37:07.440Z,26.80
2022-08-03T20:42:13.881Z,26.60
2022-08-03T20:47:24.237Z,26.50
2022-08-03T20:52:28.002Z,26.40
2022-08-03T20:57:33.226Z,26.20
2022-08-03T21:02:35.363Z,26.20
2022-08-03T21:08:04.319Z,26.00
2022-08-03T21:13:23.892Z,25.80
2022-08-03T21:18:27.640Z,25.70
2022-08-03T21:23:35.173Z,25.60
2022-08-03T21:28:51.075Z,25.50
2022-08-03T21:34:11.242Z,25.40
2022-08-03T21:39:13.210Z,25.30
2022-08-03T21:44:18.233Z,25.10
2022-08-03T21:50:04.787Z,25.10
2022-08-03T21:55:01.318Z,25.00
2022-08-03T22:00:13.041Z,24.80
2022-08-03T22:05:28.855Z,24.80
2022-08-03T22:10:31.078Z,24.70
2022-08-03T22:15:33.291Z,24.70
2022-08-03T22:20:35.131Z,24.70
2022-08-03T22:25:39.635Z,24.70
2022-08-03T22:30:42.957Z,24.60
2022-08-03T22:35:48.483Z,24.50
2022-08-03T22:40:51.225Z,24.40
2022-08-03T22:46:10.274Z,24.30
2022-08-03T22:51:16.335Z,24.30
2022-08-03T22:56:18.101Z,24.30
2022-08-03T23:01:22.927Z,24.20
2022-08-03T23:06:26.784Z,24.10
2022-08-03T23:11:28.809Z,24.00
2022-08-03T23:16:30.742Z,23.90
2022-08-03T23:21:53.822Z,23.80
2022-08-03T23:26:56.397Z,23.80
2022-08-03T23:31:59.547Z,23.80
2022-08-03T23:37:01.753Z,23.70
2022-08-03T23:42:03.986Z,23.60
2022-08-03T23:47:05.733Z,23.50
2022-08-03T23:52:15.486Z,23.50
2022-08-03T23:57:28.951Z,23.40
